createdAt,value
2019-01-24T00:01:36.182Z,26.63
2019-01-24T00:04:05.795Z,25.97
2019-01-24T00:06:35.407Z,24.20
2019-01-24T00:09:08.074Z,23.90
2019-01-24T00:11:37.925Z,24.10
2019-01-24T00:14:07.569Z,23.75
2019-01-24T00:16:37.197Z,23.30
2019-01-24T00:19:06.820Z,23.00
2019-01-24T00:21:36.686Z,21.97
2019-01-24T00:24:06.486Z,23.40
2019-01-24T00:26:35.988Z,21.37
2019-01-24T00:29:05.871Z,23.57
2019-01-24T00:31:35.402Z,21.63
2019-01-24T00:34:04.992Z,22.30
2019-01-24T00:36:34.516Z,20.20
2019-01-24T00:39:06.948Z,20.67
2019-01-24T00:41:36.502Z,23.43
2019-01-24T00:44:06.264Z,23.13
2019-01-24T00:46:36.157Z,21.63
2019-01-24T00:49:05.709Z,20.57
2019-01-24T00:51:35.533Z,21.37
2019-01-24T00:54:05.436Z,20.43
2019-01-24T00:56:35.376Z,20.60
2019-01-24T00:59:04.887Z,20.63
2019-01-24T01:01:34.446Z,20.73
2019-01-24T01:04:04.384Z,21.48
2019-01-24T01:06:34.460Z,20.37
2019-01-24T01:09:07.597Z,21.02
2019-01-24T01:11:37.154Z,21.13
2019-01-24T01:14:06.800Z,20.73
2019-01-24T01:16:36.400Z,19.80
2019-01-24T01:19:06.013Z,18.20
2019-01-24T01:21:35.548Z,17.90
2019-01-24T01:24:05.511Z,20.23
2019-01-24T01:26:35.108Z,18.33
2019-01-24T01:29:05.403Z,18.90
2019-01-24T01:31:35.179Z,19.73
2019-01-24T01:34:05.163Z,18.48
2019-01-24T01:36:35.163Z,19.73
2019-01-24T01:39:07.916Z,18.77
2019-01-24T01:41:37.770Z,18.60
2019-01-24T01:44:07.416Z,18.80
2019-01-24T01:46:37.262Z,19.95
2019-01-24T01:49:06.876Z,20.13
2019-01-24T01:51:36.447Z,17.83
2019-01-24T01:54:05.962Z,17.37
2019-01-24T01:56:35.498Z,18.33
2019-01-24T01:59:05.567Z,19.70
2019-01-24T02:01:35.698Z,18.23
2019-01-24T02:04:05.881Z,19.70
2019-01-24T02:06:35.739Z,20.70
2019-01-24T02:09:09.849Z,18.50
2019-01-24T02:11:39.591Z,18.57
2019-01-24T02:14:09.288Z,19.43
2019-01-24T02:16:39.158Z,19.30
2019-01-24T02:19:08.782Z,18.33
2019-01-24T02:21:38.303Z,19.83
2019-01-24T02:24:07.785Z,19.07
2019-01-24T02:26:37.423Z,18.47
2019-01-24T02:29:07.043Z,18.43
2019-01-24T02:31:36.873Z,17.83
2019-01-24T02:34:06.602Z,18.57
2019-01-24T02:36:36.254Z,16.63
2019-01-24T02:39:07.750Z,18.65
2019-01-24T02:41:37.404Z,19.07
2019-01-24T02:44:06.914Z,16.87
2019-01-24T02:46:36.778Z,18.23
2019-01-24T02:49:06.848Z,18.70
2019-01-24T02:51:36.818Z,16.52
2019-01-24T02:54:06.580Z,17.62
2019-01-24T02:56:36.774Z,18.23
2019-01-24T02:59:06.693Z,18.37
2019-01-24T03:01:36.816Z,16.93
2019-01-24T03:04:06.902Z,17.05
2019-01-24T03:06:37.181Z,19.00
2019-01-24T03:09:07.529Z,18.05
2019-01-24T03:11:37.119Z,18.83
2019-01-24T03:14:07.125Z,17.12
2019-01-24T03:16:37.252Z,16.75
2019-01-24T03:19:07.238Z,18.23
2019-01-24T03:21:37.289Z,17.50
2019-01-24T03:24:07.137Z,16.37
2019-01-24T03:26:37.115Z,18.25
2019-01-24T03:29:08.398Z,18.70
2019-01-24T03:31:38.202Z,17.70
2019-01-24T03:34:07.708Z,16.20
2019-01-24T03:36:37.395Z,18.80
2019-01-24T03:39:08.759Z,16.97
2019-01-24T03:41:38.247Z,17.73
2019-01-24T03:44:07.877Z,16.23
2019-01-24T03:46:37.486Z,17.83
2019-01-24T03:49:08.038Z,17.98
2019-01-24T03:51:37.824Z,17.17
2019-01-24T03:54:08.025Z,17.80
2019-01-24T03:56:37.882Z,18.67
2019-01-24T03:59:07.901Z,18.17
2019-01-24T04:01:38.198Z,18.50
2019-01-24T04:04:08.670Z,18.57
2019-01-24T04:06:39.045Z,17.13
2019-01-24T04:09:09.084Z,17.47
2019-01-24T04:11:38.647Z,17.93
2019-01-24T04:14:08.456Z,18.57
2019-01-24T04:16:38.199Z,19.03
2019-01-24T04:19:08.672Z,18.87
2019-01-24T04:21:38.694Z,19.07
2019-01-24T04:24:08.394Z,19.93
2019-01-24T04:26:38.428Z,19.45
2019-01-24T04:29:08.408Z,18.87
2019-01-24T04:31:39.227Z,19.23
2019-01-24T04:34:09.276Z,19.10
2019-01-24T04:36:39.074Z,20.30
2019-01-24T04:39:08.755Z,20.87
2019-01-24T04:41:38.735Z,20.77
2019-01-24T04:44:09.444Z,20.37
2019-01-24T04:46:38.978Z,20.03
2019-01-24T04:49:09.141Z,21.87
2019-01-24T04:51:38.913Z,20.10
2019-01-24T04:54:08.959Z,19.73
2019-01-24T04:56:39.295Z,21.97
2019-01-24T04:59:09.033Z,21.60
2019-01-24T05:01:39.060Z,20.97
2019-01-24T05:04:09.106Z,20.10
2019-01-24T05:06:39.133Z,20.43
2019-01-24T05:09:09.256Z,21.00
2019-01-24T05:11:39.621Z,20.27
2019-01-24T05:14:09.633Z,22.13
2019-01-24T05:16:39.791Z,20.20
2019-01-24T05:19:10.175Z,21.57
2019-01-24T05:21:39.938Z,19.90
2019-01-24T05:24:09.646Z,21.07
2019-01-24T05:26:39.470Z,21.42
2019-01-24T05:29:09.740Z,20.85
2019-01-24T05:31:39.706Z,20.80
2019-01-24T05:34:09.840Z,20.97
2019-01-24T05:36:39.832Z,21.12
2019-01-24T05:39:10.243Z,21.15
2019-01-24T05:41:40.380Z,21.90
2019-01-24T05:44:10.607Z,22.43
2019-01-24T05:46:40.140Z,21.40
2019-01-24T05:49:10.741Z,21.70
2019-01-24T05:51:40.283Z,21.47
2019-01-24T05:54:10.116Z,22.45
2019-01-24T05:56:40.007Z,21.57
2019-01-24T05:59:10.453Z,22.07
2019-01-24T06:01:40.865Z,22.42
2019-01-24T06:04:12.302Z,21.87
2019-01-24T06:06:42.414Z,21.43
2019-01-24T06:09:12.235Z,20.97
2019-01-24T06:11:42.062Z,20.93
2019-01-24T06:14:11.652Z,23.47
2019-01-24T06:16:41.486Z,20.32
2019-01-24T06:19:11.072Z,21.73
2019-01-24T06:21:40.842Z,22.17
2019-01-24T06:24:11.216Z,23.20
2019-01-24T06:26:41.168Z,21.27
2019-01-24T06:29:10.922Z,23.03
2019-01-24T06:31:40.720Z,21.30
2019-01-24T06:34:10.583Z,21.12
2019-01-24T06:36:40.881Z,20.75
2019-01-24T06:39:10.697Z,23.47
2019-01-24T06:41:40.825Z,22.60
2019-01-24T06:44:11.061Z,21.48
2019-01-24T06:46:40.931Z,23.30
2019-01-24T06:49:11.070Z,23.30
2019-01-24T06:51:41.140Z,24.18
2019-01-24T06:54:11.585Z,22.50
2019-01-24T06:56:41.406Z,22.73
2019-01-24T06:59:11.804Z,22.62
2019-01-24T07:01:41.868Z,22.53
2019-01-24T07:04:11.520Z,24.80
2019-01-24T07:06:41.168Z,22.45
2019-01-24T07:09:11.202Z,23.47
2019-01-24T07:11:41.525Z,22.45
2019-01-24T07:14:11.280Z,22.05
2019-01-24T07:16:41.360Z,23.00
2019-01-24T07:19:11.544Z,23.05
2019-01-24T07:21:41.789Z,23.70
2019-01-24T07:24:11.714Z,21.07
2019-01-24T07:26:41.565Z,23.60
2019-01-24T07:29:11.543Z,23.55
2019-01-24T07:31:41.896Z,22.60
2019-01-24T07:34:11.701Z,22.70
2019-01-24T07:36:41.766Z,21.93
2019-01-24T07:39:11.783Z,23.75
2019-01-24T07:41:42.169Z,23.42
2019-01-24T07:44:12.207Z,22.60
2019-01-24T07:46:41.915Z,23.18
2019-01-24T07:49:12.198Z,22.47
2019-01-24T07:51:42.071Z,20.85
2019-01-24T07:54:12.334Z,22.82
2019-01-24T07:56:42.322Z,22.45
2019-01-24T07:59:12.121Z,22.02
2019-01-24T08:01:42.898Z,22.52
2019-01-24T08:04:12.886Z,22.50
2019-01-24T08:06:42.548Z,22.00
2019-01-24T08:09:13.282Z,21.80
2019-01-24T08:11:43.564Z,21.73
2019-01-24T08:14:13.752Z,21.60
2019-01-24T08:16:43.868Z,23.22
2019-01-24T08:19:13.843Z,20.95
2019-01-24T08:21:43.662Z,22.00
2019-01-24T08:24:13.189Z,21.33
2019-01-24T08:26:42.699Z,22.83
2019-01-24T08:29:12.624Z,21.65
2019-01-24T08:31:43.023Z,23.10
2019-01-24T08:34:12.973Z,22.77
2019-01-24T08:36:42.772Z,23.10
2019-01-24T08:39:12.812Z,23.02
2019-01-24T08:41:43.058Z,22.15
2019-01-24T08:44:13.539Z,20.27
2019-01-24T08:46:43.339Z,22.17
2019-01-24T08:49:13.061Z,21.60
2019-01-24T08:51:43.048Z,20.60
2019-01-24T08:54:13.359Z,20.67
2019-01-24T08:56:43.545Z,21.70
2019-01-24T08:59:13.498Z,20.60
2019-01-24T09:01:43.589Z,21.48
2019-01-24T09:04:13.293Z,21.93
2019-01-24T09:06:43.652Z,21.30
2019-01-24T09:09:13.395Z,21.07
2019-01-24T09:11:43.436Z,21.05
2019-01-24T09:14:13.422Z,21.45
2019-01-24T09:16:43.494Z,21.05
2019-01-24T09:19:14.081Z,20.97
2019-01-24T09:21:43.876Z,20.97
2019-01-24T09:24:13.620Z,20.13
2019-01-24T09:26:44.639Z,21.93
2019-01-24T09:29:14.560Z,19.77
2019-01-24T09:31:44.410Z,20.10
2019-01-24T09:34:14.252Z,19.67
2019-01-24T09:36:43.997Z,21.83
2019-01-24T09:39:13.813Z,20.60
2019-01-24T09:41:44.258Z,19.87
2019-01-24T09:44:13.899Z,18.82
2019-01-24T09:46:43.989Z,19.67
2019-01-24T09:49:14.369Z,20.20
2019-01-24T09:51:44.306Z,18.15
2019-01-24T09:54:14.494Z,19.05
2019-01-24T09:56:44.408Z,19.43
2019-01-24T09:59:14.165Z,19.90
2019-01-24T10:01:44.744Z,19.65
2019-01-24T10:04:14.302Z,20.10
2019-01-24T10:06:44.270Z,20.35
2019-01-24T10:09:14.268Z,19.07
2019-01-24T10:11:44.709Z,19.57
2019-01-24T10:14:14.389Z,19.27
2019-01-24T10:16:44.564Z,19.03
2019-01-24T10:19:15.214Z,18.80
2019-01-24T10:21:45.206Z,19.67
2019-01-24T10:24:14.996Z,19.00
2019-01-24T10:26:45.052Z,17.70
2019-01-24T10:29:15.218Z,17.98
2019-01-24T10:31:46.435Z,19.73
2019-01-24T10:34:16.135Z,18.00
2019-01-24T10:36:45.698Z,18.67
2019-01-24T10:39:15.405Z,18.83
2019-01-24T10:41:45.293Z,17.42
2019-01-24T10:44:15.520Z,18.32
2019-01-24T10:46:46.945Z,18.90
2019-01-24T10:49:16.509Z,17.57
2019-01-24T10:51:47.731Z,17.77
2019-01-24T10:54:17.328Z,16.60
2019-01-24T10:56:47.122Z,17.53
2019-01-24T10:59:16.937Z,18.05
2019-01-24T11:01:46.769Z,18.15
2019-01-24T11:04:16.658Z,19.77
2019-01-24T11:06:49.955Z,18.20
2019-01-24T11:09:17.709Z,17.33
2019-01-24T11:11:47.708Z,17.83
2019-01-24T11:14:17.479Z,16.60
2019-01-24T11:16:47.063Z,15.93
2019-01-24T11:19:16.927Z,16.50
2019-01-24T11:21:46.471Z,15.77
2019-01-24T11:24:16.087Z,16.75
2019-01-24T11:26:46.168Z,17.02
2019-01-24T11:29:16.577Z,18.30
2019-01-24T11:31:46.712Z,18.07
2019-01-24T11:34:16.562Z,16.40
2019-01-24T11:36:47.067Z,16.55
2019-01-24T11:39:17.162Z,16.37
2019-01-24T11:41:47.052Z,16.77
2019-01-24T11:44:16.673Z,17.17
2019-01-24T11:46:46.723Z,17.02
2019-01-24T11:49:16.482Z,17.20
2019-01-24T11:51:46.541Z,17.50
2019-01-24T11:54:16.603Z,16.97
2019-01-24T11:56:47.149Z,16.82
2019-01-24T11:59:16.657Z,17.77
2019-01-24T12:01:46.910Z,17.77
2019-01-24T12:04:16.719Z,17.67
2019-01-24T12:06:47.044Z,16.65
2019-01-24T12:09:18.093Z,17.80
2019-01-24T12:11:48.742Z,17.00
2019-01-24T12:14:18.581Z,16.30
2019-01-24T12:16:48.597Z,16.40
2019-01-24T12:19:18.128Z,17.73
2019-01-24T12:21:48.060Z,16.47
2019-01-24T12:24:17.894Z,16.53
2019-01-24T12:26:47.762Z,17.70
2019-01-24T12:29:17.288Z,16.27
2019-01-24T12:31:47.751Z,17.90
2019-01-24T12:34:17.707Z,16.27
2019-01-24T12:36:47.740Z,16.00
2019-01-24T12:39:19.822Z,17.07
2019-01-24T12:41:49.678Z,15.27
2019-01-24T12:44:19.310Z,15.97
2019-01-24T12:46:48.929Z,16.90
2019-01-24T12:49:19.145Z,17.10
2019-01-24T12:51:48.698Z,17.07
2019-01-24T12:54:18.191Z,17.17
2019-01-24T12:56:47.731Z,18.13
2019-01-24T12:59:17.700Z,15.73
2019-01-24T13:01:48.508Z,17.35
2019-01-24T13:04:18.362Z,15.90
2019-01-24T13:06:48.533Z,15.43
2019-01-24T13:09:18.192Z,16.47
2019-01-24T13:11:49.232Z,16.40
2019-01-24T13:14:19.078Z,17.53
2019-01-24T13:16:48.816Z,16.17
2019-01-24T13:19:18.703Z,16.57
2019-01-24T13:21:48.690Z,16.60
2019-01-24T13:24:18.332Z,17.83
2019-01-24T13:26:48.573Z,18.27
2019-01-24T13:29:18.708Z,17.92
2019-01-24T13:31:51.167Z,17.27
2019-01-24T13:34:21.027Z,16.50
2019-01-24T13:36:50.891Z,17.77
2019-01-24T13:39:21.082Z,18.32
2019-01-24T13:41:50.615Z,16.67
2019-01-24T13:44:21.079Z,17.37
2019-01-24T13:46:50.684Z,18.90
2019-01-24T13:49:20.594Z,17.03
2019-01-24T13:51:50.143Z,18.33
2019-01-24T13:54:20.244Z,18.30
